Aérodrome :
LOGIN :

S'inscrire | Disclaimer

   EN    FR    IT 

 










Légende :    VFR   VFR Marginal   IFR   IFR Intensif   IFR Très Intensif
Visi : 
Plafond : 
>= 8 km
>= 3000ft
5 à 8 km
1000 à 3000 ft
1500m à 5 km
500 à 1000 ft
800 à 1500m
200 à 500 ft
< 800m
< 200 ft
Symboles :   Orages  Brouillard  Fortes neiges  Fortes précipitations  Vent > 20 kt
SIGMETs :   Divers  Orages  Givrage  Turbulence  Onde Orograph.  Cendres Volcan.






- Altitude de l'aérodrome : 1273 ft
- Code IATA : LJU


LJLJ - Ljubljana

DERNIER METAR :
  • 200900Z 29004KT 9999 BKN030 00/M02 Q1020 NOSIG

METARs EXPIRÉS :
  • 200830Z 29006KT 9999 BKN030 00/M02 Q1020 NOSIG
  • 200800Z 30004KT 9999 BKN030 00/M02 Q1020 NOSIG
  • 200730Z 28009KT 9999 BKN030 00/M03 Q1020 NOSIG
  • 200700Z 28010KT 9999 OVC030 00/M03 Q1020 NOSIG
  • 200630Z 29008KT 9999 OVC030 00/M03 Q1020 R30/D NOSIG

TAF TAF LJLJ
Valide du 20 à 06h jusqu'au 21 à 06h UTC


200500Z 2006/2106 27003KT 9999 OVC035
TEMPO 2012/2018 25010KT
PROB30
TEMPO 2016/2106 -RA



MET'MAP, la Météo Aéronautique d'un coup d'oeil ! - Copyright ORBIFLY Décembre 2007 - Disclaimer

ORBIFLY MET'MAP TEAM :

Programmation & Développement : Alexandra Zaïnal
Sur une idée originale de : Baudouin d'Aumeries
Assistance à la programmation : Marc-Olivier Méhu
Soutien technique & logistique : Manuel Goepfert

Contact : metmap@orbifly.com




SOURCES & CREDITS :

   NOAA